Time;durP1;ratioP1;P1;durP2;ratioP2;P2;SDS_P1;SDS_P2;PMS_P1;PMS_P2;Temp;Humidity;BMP_temperature;BMP_pressure;BME280_temperature;BME280_humidity;BME280_pressure;Samples;Min_cycle;Max_cycle;Signal;HPM_P1;HPM_P2
2021/06/04 00:00:09;;;;;;;;;;;;;;;16.61;71.99;96405.22;1049580;28;19908;-48
2021/06/04 00:00:41;;;;;;;;;;;;;;;16.56;72.15;96397.94;1048976;28;19952;-47
2021/06/04 00:01:11;;;;;;;;;;;;;;;16.51;72.29;96401.25;1044973;28;19915;-47
2021/06/04 00:01:42;;;;;;;;;;;;;;;16.44;72.78;96405.03;1040904;28;19915;-47
2021/06/04 00:02:12;;;;;;;;;;;;;;;16.43;72.75;96409.56;1036942;28;20000;-47
2021/06/04 00:02:42;;;;;;;;;;;;;;;16.50;72.59;96404.97;1041075;28;19909;-48
2021/06/04 00:03:17;;;;;;;;;;;;;;;16.44;72.92;96405.03;1045103;28;19909;-50
2021/06/04 00:03:47;;;;;;;;;;;;;;;16.39;73.06;96404.91;1049248;28;19922;-49
2021/06/04 00:04:18;;;;;;;;;;;;;;;16.38;73.06;96408.59;1049145;28;19957;-51
2021/06/04 00:04:48;;;;;;;;;;;;;;;16.40;72.66;96404.69;1049328;28;19974;-49
2021/06/04 00:05:19;;;;;;;;;;;;;;;16.35;73.25;96409.84;1049271;28;20333;-47
2021/06/04 00:05:51;;;;;;;;;;;;;;;16.29;73.22;96414.25;1049269;28;20333;-50
2021/06/04 00:06:21;;;;;;;;;;;;;;;16.28;73.30;96409.16;1049450;28;19908;-47
2021/06/04 00:06:52;;;;;;;;;;;;;;;16.27;73.43;96405.66;1048667;28;20474;-48
2021/06/04 00:07:22;;;;;;;;;;;;;;;16.27;73.01;96405.66;1049397;28;19912;-46
2021/06/04 00:07:52;;;;;;;;;;;;;;;16.35;72.92;96407.19;1049338;28;19908;-51
2021/06/04 00:08:23;;;;;;;;;;;;;;;16.37;73.25;96409.63;1049439;28;19996;-49
2021/06/04 00:08:53;;;;;;;;;;;;;;;16.38;72.65;96414.72;1049273;28;20280;-51
2021/06/04 00:09:23;;;;;;;;;;;;;;;16.38;72.88;96403.28;1049507;28;19999;-48
2021/06/04 00:09:54;;;;;;;;;;;;;;;16.35;73.09;96404.53;1049411;28;20357;-47
2021/06/04 00:10:26;;;;;;;;;;;;;;;16.32;72.84;96407.66;1049310;28;20284;-48
2021/06/04 00:10:57;;;;;;;;;;;;;;;16.43;72.69;96411.41;1049021;28;19912;-48
2021/06/04 00:11:29;;;;;;;;;;;;;;;16.39;72.60;96408.38;1048929;28;19993;-51
2021/06/04 00:12:00;;;;;;;;;;;;;;;16.36;73.15;96403.50;1049029;28;19915;-47
2021/06/04 00:12:30;;;;;;;;;;;;;;;16.36;73.08;96411.50;1044556;28;19908;-49
2021/06/04 00:13:12;;;;;;;;;;;;;;;16.38;72.99;96411.25;1044975;28;19913;-47
2021/06/04 00:13:49;;;;;;;;;;;;;;;16.40;72.76;96407.34;1049172;28;19952;-47
2021/06/04 00:14:21;;;;;;;;;;;;;;;16.40;72.85;96407.34;1049015;28;19909;-49
2021/06/04 00:14:52;;;;;;;;;;;;;;;16.34;73.43;96405.59;1049361;28;19908;-46
2021/06/04 00:15:24;;;;;;;;;;;;;;;16.34;73.29;96411.72;1049188;28;20360;-46
2021/06/04 00:15:56;;;;;;;;;;;;;;;16.42;73.21;96409.78;1049354;28;19944;-50
2021/06/04 00:16:31;;;;;;;;;;;;;;;16.41;73.51;96405.50;1049330;28;20249;-49
2021/06/04 00:17:03;;;;;;;;;;;;;;;16.38;73.80;96405.94;1049389;28;19909;-48
2021/06/04 00:17:33;;;;;;;;;;;;;;;16.40;73.55;96403.88;1049510;28;19916;-47
2021/06/04 00:18:04;;;;;;;;;;;;;;;16.37;73.91;96406.97;1049393;28;19908;-48
2021/06/04 00:18:34;;;;;;;;;;;;;;;16.40;73.74;96409.19;1049406;28;19908;-48
2021/06/04 00:19:08;;;;;;;;;;;;;;;16.44;73.89;96405.03;1049352;28;19914;-48
2021/06/04 00:19:39;;;;;;;;;;;;;;;16.43;73.55;96414.06;1048893;28;19998;-49
2021/06/04 00:20:12;;;;;;;;;;;;;;;16.45;73.94;96409.34;1049132;28;20357;-51
2021/06/04 00:20:42;;;;;;;;;;;;;;;16.44;73.40;96413.03;1048906;28;19952;-51
2021/06/04 00:21:14;;;;;;;;;;;;;;;16.46;73.26;96411.78;1049063;28;19915;-46
2021/06/04 00:21:46;;;;;;;;;;;;;;;16.49;73.24;96410.53;1049488;28;20364;-47
2021/06/04 00:22:18;;;;;;;;;;;;;;;16.55;73.27;96411.44;1049381;28;20005;-49
2021/06/04 00:22:48;;;;;;;;;;;;;;;16.55;73.18;96419.41;1049413;28;20007;-48
2021/06/04 00:23:18;;;;;;;;;;;;;;;16.48;73.32;96414.19;1049455;28;19920;-46
2021/06/04 00:23:49;;;;;;;;;;;;;;;16.48;73.32;96419.53;1049440;28;19977;-47
2021/06/04 00:24:19;;;;;;;;;;;;;;;16.51;73.68;96413.75;1049195;28;20287;-47
2021/06/04 00:24:50;;;;;;;;;;;;;;;16.52;73.64;96416.19;1049312;28;20024;-49
2021/06/04 00:25:21;;;;;;;;;;;;;;;16.53;73.42;96414.31;1049106;28;20316;-52
2021/06/04 00:25:51;;;;;;;;;;;;;;;16.46;73.53;96414.44;1049216;28;19909;-50
2021/06/04 00:26:21;;;;;;;;;;;;;;;16.52;73.87;96420.69;1048962;28;19946;-49
2021/06/04 00:26:52;;;;;;;;;;;;;;;16.43;73.80;96411.41;1048836;28;19923;-48
2021/06/04 00:27:22;;;;;;;;;;;;;;;16.41;74.13;96410.81;1049329;28;19900;-48
2021/06/04 00:27:53;;;;;;;;;;;;;;;16.38;74.29;96412.06;1049297;28;19907;-48
2021/06/04 00:28:23;;;;;;;;;;;;;;;16.36;74.38;96411.50;1049345;28;20311;-48
2021/06/04 00:28:54;;;;;;;;;;;;;;;16.32;74.30;96411.13;1049059;28;19991;-51
2021/06/04 00:29:24;;;;;;;;;;;;;;;16.29;74.46;96416.06;1049198;28;19907;-47
2021/06/04 00:29:54;;;;;;;;;;;;;;;16.23;74.66;96409.81;1049147;28;19901;-49
2021/06/04 00:30:26;;;;;;;;;;;;;;;16.24;74.88;96416.75;1048834;28;19900;-50
2021/06/04 00:30:56;;;;;;;;;;;;;;;16.20;74.89;96410.28;1049376;28;19900;-48
2021/06/04 00:31:26;;;;;;;;;;;;;;;16.22;74.68;96413.50;1049475;28;19905;-48
2021/06/04 00:31:57;;;;;;;;;;;;;;;16.21;74.99;96411.06;1048828;28;19908;-49
2021/06/04 00:32:27;;;;;;;;;;;;;;;16.15;75.09;96413.59;1045069;28;19901;-49
2021/06/04 00:32:57;;;;;;;;;;;;;;;16.13;75.13;96406.88;1040688;28;19987;-51
2021/06/04 00:33:28;;;;;;;;;;;;;;;16.15;74.79;96418.09;1040748;28;19994;-49
2021/06/04 00:33:58;;;;;;;;;;;;;;;16.13;75.05;96404.22;1045149;28;20353;-50
2021/06/04 00:34:29;;;;;;;;;;;;;;;16.11;74.94;96403.63;1049105;28;20003;-48
2021/06/04 00:34:59;;;;;;;;;;;;;;;16.19;74.71;96418.47;1049426;28;19904;-49
2021/06/04 00:35:29;;;;;;;;;;;;;;;16.27;74.62;96410.97;1049104;28;19908;-49
2021/06/04 00:36:01;;;;;;;;;;;;;;;16.32;74.04;96411.13;1049383;28;19905;-47
2021/06/04 00:36:31;;;;;;;;;;;;;;;16.40;74.15;96404.69;1049161;28;20333;-48
2021/06/04 00:37:02;;;;;;;;;;;;;;;16.42;74.02;96407.13;1045331;28;20037;-48
2021/06/04 00:37:32;;;;;;;;;;;;;;;16.43;73.50;96414.06;1049235;28;19904;-49
2021/06/04 00:38:04;;;;;;;;;;;;;;;16.45;72.90;96407.47;1049141;28;19905;-51
2021/06/04 00:38:34;;;;;;;;;;;;;;;16.45;72.39;96404.03;1049223;28;19904;-50
2021/06/04 00:39:05;;;;;;;;;;;;;;;16.40;73.01;96409.19;1049839;28;19904;-48
2021/06/04 00:39:35;;;;;;;;;;;;;;;16.39;72.72;96408.38;1050346;28;19911;-47
2021/06/04 00:40:12;;;;;;;;;;;;;;;16.40;72.76;96406.53;1050127;28;20019;-47
2021/06/04 00:40:44;;;;;;;;;;;;;;;16.43;72.81;96408.75;1050219;28;19912;-49
2021/06/04 00:41:19;;;;;;;;;;;;;;;16.38;72.81;96406.75;1050340;28;19912;-47
2021/06/04 00:41:54;;;;;;;;;;;;;;;16.41;72.40;96416.13;1050154;28;19905;-48
2021/06/04 00:42:25;;;;;;;;;;;;;;;16.44;72.78;96411.19;1049940;28;20357;-48
2021/06/04 00:42:56;;;;;;;;;;;;;;;16.49;72.34;96405.19;1050037;28;19924;-50
2021/06/04 00:43:26;;;;;;;;;;;;;;;16.50;71.82;96407.63;1050105;28;19991;-49
2021/06/04 00:43:56;;;;;;;;;;;;;;;16.53;71.10;96406.34;1050438;28;19914;-50
2021/06/04 00:44:28;;;;;;;;;;;;;;;16.52;70.96;96402.88;1050295;28;19905;-48
2021/06/04 00:44:58;;;;;;;;;;;;;;;16.46;71.12;96405.66;1050270;28;20003;-50
2021/06/04 00:45:29;;;;;;;;;;;;;;;16.44;70.81;96411.19;1049978;28;19927;-49
2021/06/04 00:46:01;;;;;;;;;;;;;;;16.42;70.61;96407.13;1049864;28;19911;-47
2021/06/04 00:46:32;;;;;;;;;;;;;;;16.46;70.62;96406.47;1049655;28;19904;-47
2021/06/04 00:47:03;;;;;;;;;;;;;;;16.53;71.98;96409.00;1049941;28;19950;-48
2021/06/04 00:47:33;;;;;;;;;;;;;;;16.53;71.18;96409.00;1049833;28;19989;-47
2021/06/04 00:48:04;;;;;;;;;;;;;;;16.57;70.81;96406.72;1049693;28;19914;-50
2021/06/04 00:48:35;;;;;;;;;;;;;;;16.55;70.65;96401.63;1050153;28;19926;-48
2021/06/04 00:49:05;;;;;;;;;;;;;;;16.61;70.52;96405.22;1050085;28;19911;-51
2021/06/04 00:49:36;;;;;;;;;;;;;;;16.63;70.19;96401.31;1049942;28;19912;-48
2021/06/04 00:50:08;;;;;;;;;;;;;;;16.59;70.88;96402.78;1049977;28;20029;-48
2021/06/04 00:50:45;;;;;;;;;;;;;;;16.51;70.96;96401.25;1049756;28;20276;-51
2021/06/04 00:51:27;;;;;;;;;;;;;;;16.43;71.37;96398.13;1045579;28;19961;-50
2021/06/04 00:51:59;;;;;;;;;;;;;;;16.49;71.44;96400.69;1045599;28;19909;-49
2021/06/04 00:52:29;;;;;;;;;;;;;;;16.43;71.21;96400.78;1044117;28;19944;-49
2021/06/04 00:53:00;;;;;;;;;;;;;;;16.40;71.67;96399.38;1043389;28;20356;-47
2021/06/04 00:53:30;;;;;;;;;;;;;;;16.43;71.77;96398.13;1045701;28;19935;-48
2021/06/04 00:54:01;;;;;;;;;;;;;;;16.45;71.86;96404.03;1041494;28;19991;-47
2021/06/04 00:54:32;;;;;;;;;;;;;;;16.54;71.48;96402.66;1041337;28;19909;-49
2021/06/04 00:55:03;;;;;;;;;;;;;;;16.55;71.83;96406.97;1041344;28;19971;-50
2021/06/04 00:55:34;;;;;;;;;;;;;;;16.53;71.77;96409.00;1033488;28;19932;-50
2021/06/04 00:56:04;;;;;;;;;;;;;;;16.56;71.67;96399.78;1037447;28;19980;-48
2021/06/04 00:56:34;;;;;;;;;;;;;;;16.46;71.99;96408.31;1037394;28;20362;-47
2021/06/04 00:57:05;;;;;;;;;;;;;;;16.44;71.88;96402.38;1041607;28;20039;-49
2021/06/04 00:57:35;;;;;;;;;;;;;;;16.44;71.93;96400.56;1045657;28;19916;-47
2021/06/04 00:58:05;;;;;;;;;;;;;;;16.43;72.26;96404.25;1045655;28;19915;-47
2021/06/04 00:58:37;;;;;;;;;;;;;;;16.42;72.32;96407.13;1045699;28;19948;-48
2021/06/04 00:59:08;;;;;;;;;;;;;;;16.50;72.52;96407.63;1041739;28;19909;-47
2021/06/04 00:59:39;;;;;;;;;;;;;;;16.52;72.64;96408.22;1041932;28;19909;-46
2021/06/04 01:00:14;;;;;;;;;;;;;;;16.53;72.68;96409.00;1046125;28;20004;-46
2021/06/04 01:00:48;;;;;;;;;;;;;;;16.61;72.45;96403.38;1049700;28;19908;-48
2021/06/04 01:01:19;;;;;;;;;;;;;;;16.55;72.75;96404.31;1049749;28;19947;-48
2021/06/04 01:01:49;;;;;;;;;;;;;;;16.63;72.34;96401.31;1049686;28;19909;-50
2021/06/04 01:02:20;;;;;;;;;;;;;;;16.67;72.81;96406.97;1049766;28;19912;-47
2021/06/04 01:02:51;;;;;;;;;;;;;;;16.68;72.35;96406.75;1049729;28;20387;-46
2021/06/04 01:03:22;;;;;;;;;;;;;;;16.57;72.79;96402.22;1049987;28;19908;-51
2021/06/04 01:03:57;;;;;;;;;;;;;;;16.54;72.70;96407.97;1050001;28;20450;-48
2021/06/04 01:04:27;;;;;;;;;;;;;;;16.52;73.41;96407.41;1049637;28;19912;-47
2021/06/04 01:04:58;;;;;;;;;;;;;;;16.60;72.87;96403.63;1049699;28;20369;-47
2021/06/04 01:05:28;;;;;;;;;;;;;;;16.57;73.75;96404.88;1045607;28;19912;-46
2021/06/04 01:06:10;;;;;;;;;;;;;;;16.49;73.48;96399.88;1045945;28;20522;-48
2021/06/04 01:06:59;;;;;;;;;;;;;;;16.45;73.09;96406.69;1050003;28;19908;-47
2021/06/04 01:07:29;;;;;;;;;;;;;;;16.49;73.06;96405.19;1049719;28;19989;-48
2021/06/04 01:08:18;;;;;;;;;;;;;;;16.51;73.42;96403.13;1049731;28;19945;-47
2021/06/04 01:09:03;;;;;;;;;;;;;;;16.41;74.02;96406.28;1049887;28;19912;-47
2021/06/04 01:09:33;;;;;;;;;;;;;;;16.37;74.01;96406.97;1049913;28;20356;-47
2021/06/04 01:10:22;;;;;;;;;;;;;;;16.36;74.13;96408.03;1049844;28;20423;-48
2021/06/04 01:11:04;;;;;;;;;;;;;;;16.32;74.18;96405.00;1049761;28;19912;-48
2021/06/04 01:11:44;;;;;;;;;;;;;;;16.30;74.65;96399.91;1050070;28;19908;-49
2021/06/04 01:12:16;;;;;;;;;;;;;;;16.33;74.94;96404.78;1050271;28;19908;-49
2021/06/04 01:12:53;;;;;;;;;;;;;;;16.33;74.53;96401.31;1045502;28;19913;-46
2021/06/04 01:13:31;;;;;;;;;;;;;;;16.32;74.51;96403.16;1048008;28;20286;-47
2021/06/04 01:14:03;;;;;;;;;;;;;;;16.39;74.42;96400.41;1045606;28;19998;-47
2021/06/04 01:14:39;;;;;;;;;;;;;;;16.45;74.48;96404.03;1043608;28;19987;-48
2021/06/04 01:15:12;;;;;;;;;;;;;;;16.49;74.02;96410.53;1045544;28;19909;-47
2021/06/04 01:15:54;;;;;;;;;;;;;;;16.50;74.08;96414.78;1046970;28;19909;-47
2021/06/04 01:16:45;;;;;;;;;;;;;;;16.54;74.41;96407.19;1048418;28;19908;-48
2021/06/04 01:17:15;;;;;;;;;;;;;;;16.54;74.28;96412.50;1049663;28;19909;-47
2021/06/04 01:17:49;;;;;;;;;;;;;;;16.52;74.38;96410.88;1049922;28;20002;-46
2021/06/04 01:18:38;;;;;;;;;;;;;;;16.52;74.61;96408.22;1050391;28;19910;-49
2021/06/04 01:19:15;;;;;;;;;;;;;;;16.57;75.09;96406.72;1050343;28;19915;-48
2021/06/04 01:20:06;;;;;;;;;;;;;;;16.57;74.55;96406.72;1050546;28;19919;-47
2021/06/04 01:20:36;;;;;;;;;;;;;;;16.53;74.82;96409.00;1046102;28;19908;-49
2021/06/04 01:21:07;;;;;;;;;;;;;;;16.60;74.88;96412.41;1050221;28;19901;-48
2021/06/04 01:21:44;;;;;;;;;;;;;;;16.59;74.76;96402.00;1049917;28;19915;-48
2021/06/04 01:22:49;;;;;;;;;;;;;;;16.56;75.10;96407.75;1049951;28;20351;-47
2021/06/04 01:23:30;;;;;;;;;;;;;;;16.62;74.79;96401.53;1046854;28;20307;-49
2021/06/04 01:24:00;;;;;;;;;;;;;;;16.64;74.92;96407.41;1045448;28;19909;-49
2021/06/04 01:24:43;;;;;;;;;;;;;;;16.66;74.99;96411.50;1041176;28;20413;-50
2021/06/04 01:25:32;;;;;;;;;;;;;;;16.70;74.52;96414.50;1041171;28;19913;-48
2021/06/04 01:26:13;;;;;;;;;;;;;;;16.62;74.89;96407.66;1047829;28;19932;-49
2021/06/04 01:26:44;;;;;;;;;;;;;;;16.56;75.22;96410.41;1049843;28;19954;-48
2021/06/04 01:27:25;;;;;;;;;;;;;;;16.51;75.63;96406.56;1050089;28;19908;-47
2021/06/04 01:27:55;;;;;;;;;;;;;;;16.51;76.01;96409.22;1045904;28;20003;-46
2021/06/04 01:28:28;;;;;;;;;;;;;;;16.54;75.92;96407.19;1045623;28;19915;-46
2021/06/04 01:29:11;;;;;;;;;;;;;;;16.52;76.08;96410.88;1041344;28;19909;-48
2021/06/04 01:29:43;;;;;;;;;;;;;;;16.56;75.58;96411.22;1043732;28;19967;-47
2021/06/04 01:30:33;;;;;;;;;;;;;;;16.56;75.46;96410.41;1048190;28;20414;-48
2021/06/04 01:31:06;;;;;;;;;;;;;;;16.56;74.75;96413.06;1049806;28;19912;-48
2021/06/04 01:31:47;;;;;;;;;;;;;;;16.54;74.79;96412.50;1049936;28;19908;-48
2021/06/04 01:32:19;;;;;;;;;;;;;;;16.46;75.28;96414.44;1049897;28;19913;-47
2021/06/04 01:32:50;;;;;;;;;;;;;;;16.44;75.21;96408.53;1047496;28;20277;-49
2021/06/04 01:33:23;;;;;;;;;;;;;;;16.43;75.62;96406.09;1045956;28;19909;-48
2021/06/04 01:33:58;;;;;;;;;;;;;;;16.44;75.60;96416.50;1045563;28;19909;-48
2021/06/04 01:34:30;;;;;;;;;;;;;;;16.47;75.64;96404.59;1045677;28;19915;-48
2021/06/04 01:35:02;;;;;;;;;;;;;;;16.55;75.44;96406.13;1046934;28;20304;-50
2021/06/04 01:35:36;;;;;;;;;;;;;;;16.51;75.48;96409.22;1045621;28;19944;-46
2021/06/04 01:36:06;;;;;;;;;;;;;;;16.45;76.08;96407.47;1042449;28;20004;-47
2021/06/04 01:36:42;;;;;;;;;;;;;;;16.42;76.48;96407.13;1045654;28;19908;-47
2021/06/04 01:37:18;;;;;;;;;;;;;;;16.31;77.12;96406.84;1042710;28;19908;-48
2021/06/04 01:37:48;;;;;;;;;;;;;;;16.26;77.29;96398.75;1042960;28;19909;-48
2021/06/04 01:38:19;;;;;;;;;;;;;;;16.26;77.57;96406.72;1041382;28;19925;-47
2021/06/04 01:38:50;;;;;;;;;;;;;;;16.41;76.83;96402.84;1042069;28;19963;-48
2021/06/04 01:39:28;;;;;;;;;;;;;;;16.38;76.84;96406.75;1045418;28;19940;-48
2021/06/04 01:40:17;;;;;;;;;;;;;;;16.40;76.79;96407.34;1042613;28;19951;-48
2021/06/04 01:40:50;;;;;;;;;;;;;;;16.34;77.76;96400.28;1045555;28;20389;-50
2021/06/04 01:41:21;;;;;;;;;;;;;;;16.33;77.93;96404.78;1045465;28;20338;-47
2021/06/04 01:41:52;;;;;;;;;;;;;;;16.31;77.99;96406.84;1048703;28;19908;-49
2021/06/04 01:42:24;;;;;;;;;;;;;;;16.33;77.83;96410.09;1045611;28;19908;-48
2021/06/04 01:42:54;;;;;;;;;;;;;;;16.31;77.98;96404.19;1046703;28;19909;-47
2021/06/04 01:43:30;;;;;;;;;;;;;;;16.28;78.15;96407.28;1045473;28;19909;-48
2021/06/04 01:44:03;;;;;;;;;;;;;;;16.23;77.84;96407.16;1042276;28;19909;-48
2021/06/04 01:44:33;;;;;;;;;;;;;;;16.18;76.89;96409.66;1045347;28;19915;-47
2021/06/04 01:45:08;;;;;;;;;;;;;;;16.13;77.69;96409.53;1045620;28;19909;-48
2021/06/04 01:45:39;;;;;;;;;;;;;;;16.11;77.09;96414.25;1046285;28;19958;-47
2021/06/04 01:46:11;;;;;;;;;;;;;;;16.06;76.81;96409.59;1046174;28;19995;-49
2021/06/04 01:46:44;;;;;;;;;;;;;;;16.04;76.60;96414.34;1049466;28;19908;-46
2021/06/04 01:47:15;;;;;;;;;;;;;;;16.03;76.35;96406.59;1045314;28;19908;-47
2021/06/04 01:47:48;;;;;;;;;;;;;;;15.96;76.36;96415.44;1046182;28;20416;-46
2021/06/04 01:48:37;;;;;;;;;;;;;;;15.91;76.91;96411.81;1045576;28;19923;-47
2021/06/04 01:49:09;;;;;;;;;;;;;;;15.92;77.38;96406.28;1048594;28;20381;-47
2021/06/04 01:49:39;;;;;;;;;;;;;;;15.94;77.28;96411.38;1049365;28;19909;-47
2021/06/04 01:50:22;;;;;;;;;;;;;;;15.86;77.30;96409.84;1049262;28;19944;-47
2021/06/04 01:50:57;;;;;;;;;;;;;;;15.83;77.50;96412.13;1049385;28;19951;-47
2021/06/04 01:51:41;;;;;;;;;;;;;;;15.84;77.20;96409.25;1045354;28;19913;-48
2021/06/04 01:52:13;;;;;;;;;;;;;;;15.89;76.56;96411.25;1045324;28;19908;-47
2021/06/04 01:52:43;;;;;;;;;;;;;;;15.89;76.86;96409.41;1047955;28;19909;-48
2021/06/04 01:53:25;;;;;;;;;;;;;;;15.98;76.39;96402.75;1049801;28;19904;-46
2021/06/04 01:53:57;;;;;;;;;;;;;;;15.99;76.33;96403.59;1049488;28;20350;-47
2021/06/04 01:54:29;;;;;;;;;;;;;;;16.10;76.08;96407.34;1049280;28;19911;-47
2021/06/04 01:55:03;;;;;;;;;;;;;;;16.04;75.72;96406.38;1045309;28;19905;-46
2021/06/04 01:55:34;;;;;;;;;;;;;;;16.14;75.72;96411.97;1046273;28;19999;-47
2021/06/04 01:56:06;;;;;;;;;;;;;;;16.13;75.48;96402.38;1045206;28;19904;-49
2021/06/04 01:56:38;;;;;;;;;;;;;;;16.17;75.08;96400.09;1045990;28;19905;-48
2021/06/04 01:57:09;;;;;;;;;;;;;;;16.14;75.27;96411.97;1045407;28;19900;-48
2021/06/04 01:57:43;;;;;;;;;;;;;;;16.12;75.15;96402.59;1045952;28;19905;-47
2021/06/04 01:58:15;;;;;;;;;;;;;;;16.11;75.36;96400.97;1049430;28;19918;-46
2021/06/04 01:58:47;;;;;;;;;;;;;;;16.10;75.07;96405.47;1049518;28;19912;-47
2021/06/04 01:59:25;;;;;;;;;;;;;;;16.12;75.23;96399.94;1049313;28;19911;-47
2021/06/04 01:59:56;;;;;;;;;;;;;;;16.11;75.38;96403.63;1045349;28;19928;-47
2021/06/04 02:00:28;;;;;;;;;;;;;;;16.08;75.47;96399.59;1045398;28;19997;-47
2021/06/04 02:01:00;;;;;;;;;;;;;;;16.13;74.98;96401.56;1046706;28;19912;-46
2021/06/04 02:01:34;;;;;;;;;;;;;;;16.13;75.45;96401.56;1041593;28;20332;-49
2021/06/04 02:02:05;;;;;;;;;;;;;;;16.11;75.49;96398.31;1040958;28;19951;-47
2021/06/04 02:02:35;;;;;;;;;;;;;;;16.10;75.75;96399.38;1037029;28;20361;-48
2021/06/04 02:03:06;;;;;;;;;;;;;;;16.10;75.71;96400.16;1038395;28;19912;-46
2021/06/04 02:03:37;;;;;;;;;;;;;;;16.09;75.82;96395.88;1045607;28;19905;-50
2021/06/04 02:04:08;;;;;;;;;;;;;;;16.06;76.06;96403.50;1049268;28;19995;-49
2021/06/04 02:04:42;;;;;;;;;;;;;;;16.08;76.21;96396.94;1049319;28;19908;-46
2021/06/04 02:05:13;;;;;;;;;;;;;;;16.06;76.34;96404.28;1049272;28;19908;-46
2021/06/04 02:05:43;;;;;;;;;;;;;;;16.01;76.37;96408.66;1045482;28;19905;-47
2021/06/04 02:06:13;;;;;;;;;;;;;;;15.97;76.45;96401.16;1041582;28;19912;-46
2021/06/04 02:06:44;;;;;;;;;;;;;;;15.97;77.10;96406.47;1045204;28;19905;-46
2021/06/04 02:07:15;;;;;;;;;;;;;;;15.98;76.94;96408.06;1045232;28;19940;-46
2021/06/04 02:07:46;;;;;;;;;;;;;;;16.01;76.65;96406.00;1049358;28;20010;-46
2021/06/04 02:08:18;;;;;;;;;;;;;;;16.00;77.01;96410.50;1049591;28;19908;-47
2021/06/04 02:08:52;;;;;;;;;;;;;;;16.01;76.91;96406.81;1049703;28;19904;-46
2021/06/04 02:09:23;;;;;;;;;;;;;;;15.99;76.27;96403.59;1049662;28;19953;-47
2021/06/04 02:09:53;;;;;;;;;;;;;;;15.97;76.62;96411.78;1049382;28;19969;-47
2021/06/04 02:10:26;;;;;;;;;;;;;;;15.98;76.11;96407.25;1049261;28;19986;-48
2021/06/04 02:10:57;;;;;;;;;;;;;;;15.93;76.19;96409.78;1049454;28;20269;-47
2021/06/04 02:11:29;;;;;;;;;;;;;;;16.01;75.76;96409.47;1045438;28;20039;-47
2021/06/04 02:12:00;;;;;;;;;;;;;;;15.94;75.99;96411.38;1049298;28;19908;-47
2021/06/04 02:12:30;;;;;;;;;;;;;;;16.03;75.95;96414.56;1049107;28;19944;-47
2021/06/04 02:13:02;;;;;;;;;;;;;;;16.01;75.92;96413.97;1049331;28;19909;-48
2021/06/04 02:13:32;;;;;;;;;;;;;;;15.98;75.69;96416.03;1049563;28;20015;-47
2021/06/04 02:14:06;;;;;;;;;;;;;;;16.05;75.63;96420.44;1049623;28;20353;-50
2021/06/04 02:14:44;;;;;;;;;;;;;;;16.05;75.22;96415.13;1049410;28;19908;-46
2021/06/04 02:15:19;;;;;;;;;;;;;;;16.02;75.81;96420.91;1049378;28;19908;-46
2021/06/04 02:15:52;;;;;;;;;;;;;;;16.06;75.52;96422.06;1049298;28;19959;-47
2021/06/04 02:16:25;;;;;;;;;;;;;;;15.99;76.06;96420.31;1045178;28;20043;-47
2021/06/04 02:16:58;;;;;;;;;;;;;;;15.96;75.52;96417.31;1046596;28;20376;-49
2021/06/04 02:17:28;;;;;;;;;;;;;;;15.97;75.39;96416.25;1049332;28;19908;-48
2021/06/04 02:18:04;;;;;;;;;;;;;;;15.87;75.29;96418.63;1046153;28;19908;-48
2021/06/04 02:18:47;;;;;;;;;;;;;;;15.91;75.14;96411.81;1045177;28;19909;-48
2021/06/04 02:19:36;;;;;;;;;;;;;;;16.02;75.50;96416.41;1045344;28;19913;-47
2021/06/04 02:20:06;;;;;;;;;;;;;;;16.02;74.85;96419.06;1049671;28;19908;-50
2021/06/04 02:20:38;;;;;;;;;;;;;;;15.98;75.06;96418.69;1045201;28;20431;-48
2021/06/04 02:21:14;;;;;;;;;;;;;;;16.01;74.99;96414.78;1043704;28;19908;-49
2021/06/04 02:21:49;;;;;;;;;;;;;;;16.04;74.98;96422.31;1037085;28;19917;-46
2021/06/04 02:22:31;;;;;;;;;;;;;;;16.04;75.26;96413.53;1038497;28;20456;-50
2021/06/04 02:23:20;;;;;;;;;;;;;;;16.05;74.77;96418.63;1039963;28;20003;-48
2021/06/04 02:24:17;;;;;;;;;;;;;;;16.07;73.46;96421.84;1049264;28;19920;-49
2021/06/04 02:24:57;;;;;;;;;;;;;;;16.08;72.25;96418.19;1047384;28;20006;-50
2021/06/04 02:25:34;;;;;;;;;;;;;;;16.08;72.42;96422.66;1049339;28;19923;-48
2021/06/04 02:26:12;;;;;;;;;;;;;;;16.07;72.29;96423.72;1049329;28;19908;-47
2021/06/04 02:26:44;;;;;;;;;;;;;;;16.05;72.34;96421.28;1045046;28;19901;-48
2021/06/04 02:27:16;;;;;;;;;;;;;;;16.06;72.57;96419.44;1047501;28;20403;-46
2021/06/04 02:27:48;;;;;;;;;;;;;;;16.04;72.18;96421.50;1049221;28;19904;-47
2021/06/04 02:28:28;;;;;;;;;;;;;;;16.07;72.38;96424.50;1041866;28;19972;-49
2021/06/04 02:29:00;;;;;;;;;;;;;;;15.97;72.62;96426.88;1040997;28;20011;-47
2021/06/04 02:29:33;;;;;;;;;;;;;;;16.00;72.23;96421.13;1040913;28;20373;-49
2021/06/04 02:30:06;;;;;;;;;;;;;;;16.09;72.33;96424.28;1038919;28;19902;-47
2021/06/04 02:30:38;;;;;;;;;;;;;;;16.08;72.42;96422.66;1041891;28;19908;-48
2021/06/04 02:31:20;;;;;;;;;;;;;;;16.19;72.24;96415.81;1042023;28;19901;-48
2021/06/04 02:31:52;;;;;;;;;;;;;;;16.24;72.14;96419.41;1047354;28;19908;-50
2021/06/04 02:32:24;;;;;;;;;;;;;;;16.26;72.18;96427.97;1045086;28;20341;-48
2021/06/04 02:32:56;;;;;;;;;;;;;;;16.24;71.69;96418.59;1041051;28;19936;-48
2021/06/04 02:33:34;;;;;;;;;;;;;;;16.16;71.94;96422.38;1041666;28;19944;-49
2021/06/04 02:34:13;;;;;;;;;;;;;;;16.14;71.94;96419.13;1042702;28;19935;-48
2021/06/04 02:34:45;;;;;;;;;;;;;;;16.06;71.98;96419.44;1047623;28;19909;-46
2021/06/04 02:35:23;;;;;;;;;;;;;;;16.03;71.77;96419.88;1040978;28;20345;-47
2021/06/04 02:35:54;;;;;;;;;;;;;;;16.07;72.09;96423.72;1043401;28;19994;-48
2021/06/04 02:36:26;;;;;;;;;;;;;;;16.08;72.00;96423.50;1040897;28;19909;-50
2021/06/04 02:37:15;;;;;;;;;;;;;;;16.14;71.65;96417.28;1035753;28;19933;-47
2021/06/04 02:37:47;;;;;;;;;;;;;;;16.15;71.81;96416.25;1036989;28;19909;-47
2021/06/04 02:38:19;;;;;;;;;;;;;;;16.15;71.59;96418.91;1035926;28;20012;-48
2021/06/04 02:38:52;;;;;;;;;;;;;;;16.11;71.63;96417.72;1042801;28;19944;-47
2021/06/04 02:39:33;;;;;;;;;;;;;;;16.26;71.33;96419.19;1041948;28;19909;-47
2021/06/04 02:40:33;;;;;;;;;;;;;;;16.19;71.23;96416.63;1043268;28;20390;-48
2021/06/04 02:41:05;;;;;;;;;;;;;;;16.21;71.16;96425.16;1040731;28;19909;-49
2021/06/04 02:41:36;;;;;;;;;;;;;;;16.24;71.24;96422.06;1032992;28;19901;-48
2021/06/04 02:42:11;;;;;;;;;;;;;;;16.21;71.04;96411.88;1032759;28;19910;-51
2021/06/04 02:42:41;;;;;;;;;;;;;;;16.14;71.43;96419.94;1032602;28;20366;-48
2021/06/04 02:43:19;;;;;;;;;;;;;;;16.10;71.52;96428.56;1034119;28;19916;-47
2021/06/04 02:43:50;;;;;;;;;;;;;;;16.11;71.49;96420.38;1040945;28;19931;-51
2021/06/04 02:44:23;;;;;;;;;;;;;;;16.11;71.76;96419.56;1036562;28;19909;-46
2021/06/04 02:44:55;;;;;;;;;;;;;;;16.09;72.18;96416.31;1032750;28;20027;-51
2021/06/04 02:45:30;;;;;;;;;;;;;;;16.12;71.65;96426.50;1028755;28;19997;-48
2021/06/04 02:46:04;;;;;;;;;;;;;;;16.31;71.77;96414.81;1029892;28;19961;-50
2021/06/04 02:46:36;;;;;;;;;;;;;;;16.35;70.87;96423.16;1030107;28;19910;-48
2021/06/04 02:47:10;;;;;;;;;;;;;;;16.40;70.41;96425.13;1033985;28;19924;-49
2021/06/04 02:47:51;;;;;;;;;;;;;;;16.41;70.18;96426.75;1036841;28;20392;-48
2021/06/04 02:48:21;;;;;;;;;;;;;;;16.43;70.11;96420.19;1036938;28;19944;-46
2021/06/04 02:48:52;;;;;;;;;;;;;;;16.43;70.06;96430.81;1038734;28;19909;-52
2021/06/04 02:49:22;;;;;;;;;;;;;;;16.38;70.39;96428.00;1036675;28;20257;-50
2021/06/04 02:49:53;;;;;;;;;;;;;;;16.34;70.36;96430.31;1036848;28;19961;-48
2021/06/04 02:50:37;;;;;;;;;;;;;;;16.34;70.37;96429.50;1036825;28;20420;-49
2021/06/04 02:51:08;;;;;;;;;;;;;;;16.29;70.62;96430.19;1038759;28;19909;-47
2021/06/04 02:51:38;;;;;;;;;;;;;;;16.25;70.74;96426.34;1036806;28;19992;-51
2021/06/04 02:52:23;;;;;;;;;;;;;;;16.19;71.07;96429.91;1036769;28;19996;-50
2021/06/04 02:52:54;;;;;;;;;;;;;;;16.17;71.42;96432.78;1032434;28;20367;-48
2021/06/04 02:53:26;;;;;;;;;;;;;;;16.15;71.60;96429.53;1034806;28;19909;-48
2021/06/04 02:54:06;;;;;;;;;;;;;;;16.13;71.82;96428.13;1036614;28;20366;-47
2021/06/04 02:54:38;;;;;;;;;;;;;;;16.23;71.46;96428.44;1038154;28;19909;-48
2021/06/04 02:55:09;;;;;;;;;;;;;;;16.28;71.55;96425.91;1040826;28;20281;-49
2021/06/04 02:55:40;;;;;;;;;;;;;;;16.31;71.17;96428.09;1036661;28;20051;-49